Etusivu
METAR-TAF:

METAR-TAF

Lentoasemat :

Zaragoza, Espanja

Leveyspiiri: 41-40N, Pituuspiiri: 001-01W, korkeus merenpinnasta: 263 m

Tämänhetkinen sää

Tämä raportti tehtiin 34 minuuttia sitten, kello 10.30 UTC
Tuuli 8 kn idästä, vaihdellen idän/koillisen ja idän/kaakon välillä
Lämpötila 28°C
Kosteus 48%
Ilmanpaine 1019 hPa
Näkyvyys 10 km tai enemmän
ei pilviä alle 1500 m:ssä eikä cumulonimbus-pilviä

METAR: LEZG 241030Z 10008KT 060V120 CAVOK 28/16 Q1019

Aika: 13:04 (11:04 UTC)

Sääennuste

Tämä raportti tehtiin 6 tuntia ja 4 minuuttia sitten, kello 05.00 UTC
Ennuste voimassa 24. päivästä klo 06 UTC - 25. päivään klo 06 UTC
Tuuli 8 kn idästä/kaakosta
Näkyvyys 10 km tai enemmän
Muutamia pilviä 5000 ft:n korkeudessa
Ajoittain
24. päivästä klo 06 UTC - 24. päivään klo 08 UTC
Tuuli 3 kn eri suunnista

TAF: LEZG 240500Z 2406/2506 11008KT 9999 FEW050 TX33/2415Z TN17/2406Z TEMPO 2406/2408 VRB03KT

Säähavainnot ja -ennusteet yli 4000 lentoasemalta (METAR- ja TAF-raportit).

Käytössä olevat sääasemat on merkitty karttaan keltaisilla ja punaisilla pisteillä.

Aseta hiiri pisteen päälle nähdäksesi sääaseman nimen.

Klikkaa sitten nähdäksesi säähavainnot ja -ennusteet.

Kartan vaihtaminen: klikkaa mustalla rastilla varustettuja vihreitä pisteitä, niin voit zoomata sisään; viivalla varustettua vihreää pistettä, niin voit zoomata ulos tai vihreitä nuolia, niin pääset viereisille kartoille.


METAR-TAF: